createdAt,value
2017-09-04T00:01:33.963Z,12.30
2017-09-04T00:04:01.597Z,12.30
2017-09-04T00:06:29.217Z,12.20
2017-09-04T00:08:56.878Z,12.20
2017-09-04T00:11:25.206Z,12.20
2017-09-04T00:13:52.821Z,12.20
2017-09-04T00:16:21.115Z,12.20
2017-09-04T00:18:48.689Z,12.20
2017-09-04T00:21:16.296Z,12.10
2017-09-04T00:23:43.860Z,12.10
2017-09-04T00:26:11.498Z,12.10
2017-09-04T00:28:39.068Z,12.10
2017-09-04T00:31:06.683Z,12.10
2017-09-04T00:33:34.318Z,12.00
2017-09-04T00:36:01.953Z,11.90
2017-09-04T00:38:29.605Z,11.90
2017-09-04T00:40:57.222Z,11.90
2017-09-04T00:43:24.842Z,12.00
2017-09-04T00:45:52.478Z,11.90
2017-09-04T00:48:20.659Z,11.90
2017-09-04T00:50:48.252Z,11.90
2017-09-04T00:53:15.867Z,11.90
2017-09-04T00:55:43.471Z,11.90
2017-09-04T00:58:11.081Z,11.90
2017-09-04T01:00:38.675Z,11.80
2017-09-04T01:03:06.254Z,11.90
2017-09-04T01:05:33.895Z,11.90
2017-09-04T01:08:01.490Z,11.90
2017-09-04T01:10:29.066Z,11.90
2017-09-04T01:12:56.908Z,11.90
2017-09-04T01:15:24.488Z,11.80
2017-09-04T01:17:52.106Z,11.80
2017-09-04T01:20:19.729Z,11.80
2017-09-04T01:22:47.321Z,11.80
2017-09-04T01:25:14.905Z,11.80
2017-09-04T01:27:42.479Z,11.80
2017-09-04T01:30:10.096Z,11.70
2017-09-04T01:32:37.719Z,11.70
2017-09-04T01:35:05.323Z,11.50
2017-09-04T01:37:34.388Z,11.40
2017-09-04T01:40:02.003Z,11.40
2017-09-04T01:42:29.645Z,11.50
2017-09-04T01:44:57.237Z,11.50
2017-09-04T01:47:24.850Z,11.50
2017-09-04T01:49:52.495Z,11.50
2017-09-04T01:52:21.117Z,11.50
2017-09-04T01:54:48.712Z,11.50
2017-09-04T01:57:16.295Z,11.40
2017-09-04T01:59:43.980Z,11.40
2017-09-04T02:02:11.561Z,11.50
2017-09-04T02:04:39.928Z,11.50
2017-09-04T02:07:08.420Z,11.50
2017-09-04T02:09:36.068Z,11.40
2017-09-04T02:12:03.695Z,11.50
2017-09-04T02:14:31.304Z,11.40
2017-09-04T02:16:58.890Z,11.30
2017-09-04T02:19:26.524Z,10.80
2017-09-04T02:21:54.109Z,10.50
2017-09-04T02:24:21.742Z,10.40
2017-09-04T02:26:49.325Z,10.50
2017-09-04T02:29:16.951Z,10.60
2017-09-04T02:31:44.503Z,10.80
2017-09-04T02:34:12.106Z,10.80
2017-09-04T02:36:39.737Z,10.90
2017-09-04T02:39:07.343Z,11.00
2017-09-04T02:41:34.932Z,11.00
2017-09-04T02:44:02.512Z,11.10
2017-09-04T02:46:30.162Z,11.10
2017-09-04T02:48:58.483Z,11.10
2017-09-04T02:51:26.056Z,11.10
2017-09-04T02:53:53.695Z,11.10
2017-09-04T02:56:21.320Z,11.10
2017-09-04T02:58:48.915Z,11.00
2017-09-04T03:01:16.554Z,11.00
2017-09-04T03:03:44.171Z,11.00
2017-09-04T03:06:11.792Z,10.90
2017-09-04T03:08:39.396Z,11.00
2017-09-04T03:11:07.808Z,11.00
2017-09-04T03:13:35.381Z,11.00
2017-09-04T03:16:02.975Z,11.00
2017-09-04T03:18:31.542Z,11.00
2017-09-04T03:20:59.167Z,10.90
2017-09-04T03:23:26.840Z,10.90
2017-09-04T03:25:54.399Z,10.80
2017-09-04T03:28:21.987Z,10.80
2017-09-04T03:30:49.614Z,10.80
2017-09-04T03:33:17.254Z,10.80
2017-09-04T03:35:44.841Z,10.80
2017-09-04T03:38:12.476Z,10.70
2017-09-04T03:40:40.120Z,10.70
2017-09-04T03:43:07.917Z,10.70
2017-09-04T03:45:35.526Z,10.70
2017-09-04T03:48:03.142Z,10.70
2017-09-04T03:50:30.802Z,10.70
2017-09-04T03:52:58.495Z,10.70
2017-09-04T03:55:26.129Z,10.70
2017-09-04T03:57:53.752Z,10.70
2017-09-04T04:00:21.338Z,10.60
2017-09-04T04:02:48.978Z,10.60
2017-09-04T04:05:16.560Z,10.60
2017-09-04T04:07:44.197Z,10.60
2017-09-04T04:10:11.790Z,10.60
2017-09-04T04:12:39.518Z,10.60
2017-09-04T04:15:07.125Z,10.60
2017-09-04T04:17:34.856Z,10.60
2017-09-04T04:20:02.434Z,10.60
2017-09-04T04:22:30.121Z,10.60
2017-09-04T04:24:57.787Z,10.60
2017-09-04T04:27:25.365Z,10.50
2017-09-04T04:29:52.982Z,10.50
2017-09-04T04:32:20.601Z,10.50
2017-09-04T04:34:48.209Z,10.50
2017-09-04T04:37:15.839Z,10.50
2017-09-04T04:39:43.418Z,10.50
2017-09-04T04:42:11.007Z,10.40
2017-09-04T04:44:38.577Z,10.40
2017-09-04T04:47:06.317Z,10.40
2017-09-04T04:49:34.363Z,10.40
2017-09-04T04:52:02.038Z,10.40
2017-09-04T04:54:29.629Z,10.30
2017-09-04T04:56:57.224Z,10.30
2017-09-04T04:59:24.840Z,10.30
2017-09-04T05:01:52.434Z,10.30
2017-09-04T05:04:20.117Z,10.30
2017-09-04T05:06:47.715Z,10.30
2017-09-04T05:09:15.334Z,10.30
2017-09-04T05:11:42.965Z,10.30
2017-09-04T05:14:10.603Z,10.30
2017-09-04T05:16:38.225Z,10.30
2017-09-04T05:19:05.824Z,10.30
2017-09-04T05:21:33.455Z,10.40
2017-09-04T05:24:01.083Z,10.40
2017-09-04T05:26:28.996Z,10.40
2017-09-04T05:28:56.606Z,10.40
2017-09-04T05:31:24.234Z,10.40
2017-09-04T05:33:52.572Z,10.30
2017-09-04T05:36:20.159Z,10.30
2017-09-04T05:38:47.812Z,10.40
2017-09-04T05:41:17.145Z,10.40
2017-09-04T05:43:44.758Z,10.40
2017-09-04T05:46:12.397Z,10.40
2017-09-04T05:48:39.982Z,10.50
2017-09-04T05:51:07.593Z,10.50
2017-09-04T05:53:35.233Z,10.60
2017-09-04T05:56:02.839Z,10.60
2017-09-04T05:58:30.490Z,10.70
2017-09-04T06:00:58.099Z,10.80
2017-09-04T06:03:25.691Z,10.80
2017-09-04T06:05:53.841Z,10.90
2017-09-04T06:08:21.475Z,11.00
2017-09-04T06:10:49.090Z,11.10
2017-09-04T06:13:16.989Z,11.20
2017-09-04T06:15:44.560Z,11.30
2017-09-04T06:18:12.157Z,11.40
2017-09-04T06:20:39.761Z,11.60
2017-09-04T06:23:07.339Z,11.70
2017-09-04T06:25:34.958Z,11.80
2017-09-04T06:28:02.566Z,11.90
2017-09-04T06:30:30.187Z,12.10
2017-09-04T06:32:57.831Z,12.20
2017-09-04T06:35:25.431Z,12.40
2017-09-04T06:37:54.107Z,12.50
2017-09-04T06:40:21.716Z,12.60
2017-09-04T06:42:49.319Z,12.80
2017-09-04T06:45:16.930Z,12.90
2017-09-04T06:47:44.520Z,13.00
2017-09-04T06:50:12.099Z,13.00
2017-09-04T06:52:39.692Z,13.10
2017-09-04T06:55:08.008Z,13.30
2017-09-04T06:57:35.595Z,13.30
2017-09-04T07:00:03.194Z,13.40
2017-09-04T07:02:30.824Z,13.40
2017-09-04T07:04:58.425Z,13.50
2017-09-04T07:07:26.009Z,13.60
2017-09-04T07:09:53.984Z,13.70
2017-09-04T07:12:21.591Z,13.90
2017-09-04T07:14:50.338Z,14.10
2017-09-04T07:17:17.986Z,13.90
2017-09-04T07:19:45.612Z,13.90
2017-09-04T07:22:13.231Z,13.90
2017-09-04T07:24:41.032Z,14.10
2017-09-04T07:27:09.634Z,14.20
2017-09-04T07:29:37.278Z,14.20
2017-09-04T07:32:05.181Z,14.10
2017-09-04T07:34:32.797Z,13.80
2017-09-04T07:37:00.462Z,13.90
2017-09-04T07:39:28.082Z,13.90
2017-09-04T07:41:55.697Z,13.80
2017-09-04T07:44:23.869Z,13.80
2017-09-04T07:46:51.465Z,13.90
2017-09-04T07:49:19.061Z,14.00
2017-09-04T07:51:46.691Z,14.30
2017-09-04T07:54:14.310Z,14.50
2017-09-04T07:56:41.919Z,14.60
2017-09-04T07:59:09.519Z,14.60
2017-09-04T08:01:37.207Z,14.50
2017-09-04T08:04:04.854Z,14.60
2017-09-04T08:06:32.701Z,14.60
2017-09-04T08:09:00.274Z,14.50
2017-09-04T08:11:27.867Z,14.40
2017-09-04T08:13:55.476Z,14.70
2017-09-04T08:16:23.090Z,14.90
2017-09-04T08:18:50.731Z,15.00
2017-09-04T08:21:18.311Z,15.00
2017-09-04T08:23:45.915Z,15.10
2017-09-04T08:26:13.548Z,15.10
2017-09-04T08:28:41.226Z,15.10
2017-09-04T08:31:10.306Z,15.10
2017-09-04T08:33:37.903Z,15.00
2017-09-04T08:36:05.599Z,15.00
2017-09-04T08:38:33.204Z,15.30
2017-09-04T08:41:00.832Z,15.40
2017-09-04T08:43:28.435Z,15.40
2017-09-04T08:45:56.055Z,15.70
2017-09-04T08:48:23.665Z,16.10
2017-09-04T08:50:51.262Z,16.50
2017-09-04T08:53:18.874Z,16.70
2017-09-04T08:55:46.475Z,16.60
2017-09-04T08:58:14.064Z,16.30
2017-09-04T09:00:41.654Z,16.30
2017-09-04T09:03:09.244Z,16.40
2017-09-04T09:05:36.823Z,16.60
2017-09-04T09:08:04.432Z,16.70
2017-09-04T09:10:32.033Z,16.90
2017-09-04T09:12:59.638Z,17.00
2017-09-04T09:15:27.275Z,17.10
2017-09-04T09:17:55.791Z,17.20
2017-09-04T09:20:23.408Z,17.30
2017-09-04T09:22:51.020Z,17.60
2017-09-04T09:25:18.713Z,17.50
2017-09-04T09:27:47.275Z,17.20
2017-09-04T09:30:14.886Z,17.60
2017-09-04T09:32:42.559Z,17.20
2017-09-04T09:35:10.300Z,17.30
2017-09-04T09:37:37.896Z,17.60
2017-09-04T09:40:05.562Z,18.10
2017-09-04T09:42:33.187Z,18.30
2017-09-04T09:45:00.777Z,18.50
2017-09-04T09:47:28.516Z,18.30
2017-09-04T09:49:56.161Z,18.00
2017-09-04T09:52:23.800Z,18.20
2017-09-04T09:54:51.472Z,18.20
2017-09-04T09:57:19.102Z,18.40
2017-09-04T09:59:46.709Z,18.80
2017-09-04T10:02:14.315Z,18.80
2017-09-04T10:04:41.978Z,19.10
2017-09-04T10:07:09.581Z,19.00
2017-09-04T10:09:37.241Z,18.90
2017-09-04T10:12:06.572Z,18.60
2017-09-04T10:14:34.227Z,18.70
2017-09-04T10:17:01.856Z,18.70
2017-09-04T10:19:29.483Z,19.00
2017-09-04T10:21:57.139Z,19.10
2017-09-04T10:24:24.733Z,19.40
2017-09-04T10:26:52.325Z,19.70
2017-09-04T10:29:19.940Z,20.10
2017-09-04T10:31:47.599Z,20.10
2017-09-04T10:34:15.169Z,20.30
2017-09-04T10:36:42.842Z,20.40
2017-09-04T10:39:10.468Z,20.80
2017-09-04T10:41:38.139Z,20.80
2017-09-04T10:44:05.725Z,21.00
2017-09-04T10:46:33.376Z,21.40
2017-09-04T10:49:01.946Z,21.60
2017-09-04T10:51:30.522Z,21.80
2017-09-04T10:53:58.160Z,21.60
2017-09-04T10:56:25.777Z,21.80
2017-09-04T10:58:53.367Z,21.80
2017-09-04T11:01:20.971Z,21.70
2017-09-04T11:03:48.631Z,21.70
2017-09-04T11:06:16.273Z,21.60
2017-09-04T11:08:43.856Z,22.00
2017-09-04T11:11:11.451Z,22.00
2017-09-04T11:13:39.047Z,21.90
2017-09-04T11:16:06.741Z,22.00
2017-09-04T11:18:34.366Z,21.90
2017-09-04T11:21:01.944Z,21.80
2017-09-04T11:23:29.637Z,21.90
2017-09-04T11:25:57.234Z,21.80
2017-09-04T11:28:24.871Z,21.60
2017-09-04T11:30:52.465Z,21.00
2017-09-04T11:33:20.059Z,21.40
2017-09-04T11:35:47.785Z,21.40
2017-09-04T11:38:15.513Z,21.30
2017-09-04T11:40:43.151Z,21.40
2017-09-04T11:43:10.745Z,21.50
2017-09-04T11:45:38.336Z,21.90
2017-09-04T11:48:05.916Z,22.10
2017-09-04T11:50:33.522Z,22.10
2017-09-04T11:53:01.135Z,22.00
2017-09-04T11:55:28.731Z,21.90
2017-09-04T11:57:56.329Z,21.60
2017-09-04T12:00:23.936Z,21.60
2017-09-04T12:02:51.538Z,22.10
2017-09-04T12:05:19.159Z,22.60
2017-09-04T12:07:46.802Z,22.30
2017-09-04T12:10:15.318Z,22.10
2017-09-04T12:12:42.908Z,22.40
2017-09-04T12:15:11.498Z,22.30
2017-09-04T12:17:39.244Z,22.80
2017-09-04T12:20:08.315Z,22.90
2017-09-04T12:22:35.926Z,23.00
2017-09-04T12:25:03.607Z,23.00
2017-09-04T12:27:31.375Z,23.00
2017-09-04T12:29:59.087Z,23.00
2017-09-04T12:32:26.725Z,23.40
2017-09-04T12:34:54.303Z,23.30
2017-09-04T12:37:21.875Z,23.50
2017-09-04T12:39:49.470Z,23.80
2017-09-04T12:42:17.126Z,23.60
2017-09-04T12:44:44.772Z,23.70
2017-09-04T12:47:12.385Z,23.70
2017-09-04T12:49:39.963Z,23.70
2017-09-04T12:52:07.579Z,23.60
2017-09-04T12:54:35.142Z,23.70
2017-09-04T12:57:02.733Z,23.30
2017-09-04T12:59:30.433Z,23.10
2017-09-04T13:01:58.025Z,23.50
2017-09-04T13:04:25.645Z,23.10
2017-09-04T13:06:53.262Z,23.10
2017-09-04T13:09:21.507Z,23.40
2017-09-04T13:11:54.749Z,22.90
2017-09-04T13:17:28.112Z,22.10
2017-09-04T13:20:11.388Z,22.10
2017-09-04T13:22:44.844Z,21.70
2017-09-04T13:25:17.861Z,21.80
2017-09-04T13:28:03.305Z,22.10
2017-09-04T13:30:40.805Z,22.30
2017-09-04T13:33:14.213Z,22.70
2017-09-04T13:35:49.398Z,22.60
2017-09-04T13:38:22.704Z,21.80
2017-09-04T13:41:11.003Z,21.40
2017-09-04T13:43:44.442Z,21.60
2017-09-04T13:46:31.922Z,21.70
2017-09-04T13:49:06.127Z,22.30
2017-09-04T13:51:39.693Z,22.70
2017-09-04T13:54:12.957Z,22.80
2017-09-04T13:56:41.285Z,22.70
2017-09-04T13:59:14.612Z,22.80
2017-09-04T14:01:47.796Z,22.70
2017-09-04T14:04:31.101Z,22.50
2017-09-04T14:07:04.233Z,22.20
2017-09-04T14:09:37.463Z,21.70
2017-09-04T14:12:20.911Z,21.80
2017-09-04T14:14:54.063Z,21.40
2017-09-04T14:17:27.271Z,21.30
2017-09-04T14:19:54.864Z,21.30
2017-09-04T14:22:22.499Z,21.10
2017-09-04T14:24:50.118Z,20.90
2017-09-04T14:27:19.576Z,20.90
2017-09-04T14:29:47.199Z,20.90
2017-09-04T14:32:14.778Z,20.80
2017-09-04T14:34:42.415Z,21.00
2017-09-04T14:37:10.007Z,21.00
2017-09-04T14:39:37.647Z,21.00
2017-09-04T14:42:05.276Z,21.10
2017-09-04T14:44:32.877Z,21.10
2017-09-04T14:47:01.223Z,20.90
2017-09-04T14:49:28.979Z,21.00
2017-09-04T14:51:56.642Z,20.80
2017-09-04T14:54:24.261Z,20.60
2017-09-04T14:56:51.888Z,20.50
2017-09-04T14:59:19.493Z,20.40
2017-09-04T15:01:47.125Z,20.50
2017-09-04T15:04:14.700Z,20.60
2017-09-04T15:06:42.303Z,20.80
2017-09-04T15:09:09.878Z,20.70
2017-09-04T15:11:37.556Z,20.60
2017-09-04T15:14:05.170Z,20.50
2017-09-04T15:16:32.794Z,20.20
2017-09-04T15:19:00.367Z,20.10
2017-09-04T15:21:27.958Z,20.00
2017-09-04T15:23:55.708Z,20.00
2017-09-04T15:26:24.340Z,20.00
2017-09-04T15:28:51.945Z,20.00
2017-09-04T15:31:19.539Z,20.20
2017-09-04T15:33:47.951Z,20.30
2017-09-04T15:36:15.525Z,20.20
2017-09-04T15:38:43.150Z,20.30
2017-09-04T15:41:10.776Z,20.40
2017-09-04T15:43:38.414Z,20.40
2017-09-04T15:46:06.168Z,20.30
2017-09-04T15:48:34.035Z,20.10
2017-09-04T15:51:02.073Z,20.10
2017-09-04T15:53:29.678Z,20.20
2017-09-04T15:55:58.277Z,20.20
2017-09-04T15:58:25.911Z,20.10
2017-09-04T16:00:53.526Z,20.10
2017-09-04T16:03:21.614Z,20.10
2017-09-04T16:05:53.876Z,20.10
2017-09-04T16:08:24.525Z,20.10
2017-09-04T16:10:52.121Z,20.10
2017-09-04T16:13:21.940Z,20.00
2017-09-04T16:15:50.330Z,19.90
2017-09-04T16:18:18.871Z,20.00
2017-09-04T16:20:53.257Z,20.00
2017-09-04T16:23:36.631Z,20.00
2017-09-04T16:26:20.916Z,19.80
2017-09-04T16:28:58.467Z,19.90
2017-09-04T16:31:28.552Z,19.70
2017-09-04T16:33:57.639Z,19.70
2017-09-04T16:36:25.840Z,19.70
2017-09-04T16:39:00.153Z,19.70
2017-09-04T16:41:42.625Z,19.70
2017-09-04T16:44:11.279Z,19.60
2017-09-04T16:46:57.761Z,19.60
2017-09-04T16:49:40.219Z,19.50
2017-09-04T16:52:18.508Z,19.20
2017-09-04T16:54:46.856Z,19.20
2017-09-04T16:57:14.473Z,19.20
2017-09-04T16:59:42.087Z,18.90
2017-09-04T17:02:09.707Z,19.00
2017-09-04T17:04:37.304Z,19.10
2017-09-04T17:07:04.911Z,19.00
2017-09-04T17:09:32.527Z,18.90
2017-09-04T17:12:00.140Z,18.90
2017-09-04T17:14:27.732Z,18.80
2017-09-04T17:16:55.866Z,18.80
2017-09-04T17:19:33.408Z,18.70
2017-09-04T17:22:01.942Z,18.60
2017-09-04T17:24:29.575Z,18.60
2017-09-04T17:26:57.134Z,18.60
2017-09-04T17:29:24.755Z,18.50
2017-09-04T17:31:52.357Z,18.50
2017-09-04T17:34:19.980Z,18.40
2017-09-04T17:36:47.580Z,18.40
2017-09-04T17:39:15.190Z,18.40
2017-09-04T17:41:42.778Z,18.30
2017-09-04T17:44:10.386Z,18.20
2017-09-04T17:46:38.053Z,18.10
2017-09-04T17:49:05.668Z,18.10
2017-09-04T17:51:33.272Z,18.00
2017-09-04T17:54:00.883Z,18.00
2017-09-04T17:56:28.715Z,18.00
2017-09-04T17:58:56.677Z,17.90
2017-09-04T18:01:24.268Z,17.90
2017-09-04T18:03:51.871Z,17.90
2017-09-04T18:06:19.475Z,17.90
2017-09-04T18:08:47.041Z,17.90
2017-09-04T18:11:14.614Z,17.90
2017-09-04T18:13:42.181Z,17.90
2017-09-04T18:16:10.664Z,17.90
2017-09-04T18:18:38.309Z,17.90
2017-09-04T18:21:05.909Z,17.90
2017-09-04T18:23:34.344Z,17.90
2017-09-04T18:26:02.733Z,17.90
2017-09-04T18:28:30.344Z,17.70
2017-09-04T18:30:57.967Z,17.50
2017-09-04T18:33:25.564Z,17.60
2017-09-04T18:35:53.179Z,17.60
2017-09-04T18:38:20.781Z,17.70
2017-09-04T18:40:48.360Z,17.70
2017-09-04T18:43:15.957Z,17.80
2017-09-04T18:45:43.571Z,17.70
2017-09-04T18:48:11.472Z,17.70
2017-09-04T18:50:39.076Z,17.80
2017-09-04T18:53:06.674Z,17.70
2017-09-04T18:55:34.281Z,17.70
2017-09-04T18:58:01.881Z,17.60
2017-09-04T19:00:30.734Z,17.50
2017-09-04T19:02:58.319Z,17.60
2017-09-04T19:05:25.938Z,17.50
2017-09-04T19:07:53.534Z,17.50
2017-09-04T19:10:21.117Z,17.40
2017-09-04T19:12:48.718Z,17.40
2017-09-04T19:15:16.313Z,17.50
2017-09-04T19:17:43.918Z,17.40
2017-09-04T19:20:12.392Z,17.50
2017-09-04T19:22:40.306Z,17.40
2017-09-04T19:25:07.926Z,17.40
2017-09-04T19:27:35.651Z,17.30
2017-09-04T19:30:03.366Z,17.20
2017-09-04T19:32:31.078Z,17.20
2017-09-04T19:34:58.701Z,17.20
2017-09-04T19:37:26.329Z,17.20
2017-09-04T19:39:53.977Z,17.30
2017-09-04T19:42:21.597Z,17.30
2017-09-04T19:44:49.184Z,17.30
2017-09-04T19:47:16.746Z,17.30
2017-09-04T19:49:44.362Z,17.20
2017-09-04T19:52:11.948Z,17.20
2017-09-04T19:54:39.546Z,17.20
2017-09-04T19:57:07.165Z,17.20
2017-09-04T19:59:34.770Z,17.30
2017-09-04T20:02:02.379Z,17.20
2017-09-04T20:04:30.000Z,17.20
2017-09-04T20:06:57.610Z,17.30
2017-09-04T20:09:25.240Z,17.20
2017-09-04T20:11:52.885Z,17.20
2017-09-04T20:14:20.500Z,17.30
2017-09-04T20:16:48.128Z,17.30
2017-09-04T20:19:15.767Z,17.30
2017-09-04T20:21:43.392Z,17.20
2017-09-04T20:24:10.973Z,17.20
2017-09-04T20:26:38.567Z,17.10
2017-09-04T20:29:06.151Z,17.10
2017-09-04T20:31:35.946Z,17.00
2017-09-04T20:34:03.658Z,17.10
2017-09-04T20:36:32.060Z,17.10
2017-09-04T20:38:59.626Z,17.00
2017-09-04T20:41:27.209Z,17.00
2017-09-04T20:43:54.803Z,16.90
2017-09-04T20:46:22.418Z,17.00
2017-09-04T20:48:49.999Z,16.90
2017-09-04T20:51:17.606Z,16.90
2017-09-04T20:53:45.231Z,16.90
2017-09-04T20:56:12.818Z,17.00
2017-09-04T20:58:40.481Z,16.90
2017-09-04T21:01:08.090Z,17.00
2017-09-04T21:03:35.719Z,17.00
2017-09-04T21:06:03.309Z,16.90
2017-09-04T21:08:30.933Z,16.90
2017-09-04T21:10:58.586Z,17.00
2017-09-04T21:13:26.158Z,17.10
2017-09-04T21:15:53.769Z,17.00
2017-09-04T21:18:21.383Z,17.00
2017-09-04T21:20:49.039Z,17.00
2017-09-04T21:23:16.646Z,16.90
2017-09-04T21:25:44.880Z,16.90
2017-09-04T21:28:12.490Z,16.80
2017-09-04T21:30:40.911Z,16.90
2017-09-04T21:33:08.494Z,16.80
2017-09-04T21:35:36.981Z,16.90
2017-09-04T21:38:04.556Z,16.90
2017-09-04T21:40:32.200Z,16.90
2017-09-04T21:42:59.780Z,16.90
2017-09-04T21:45:27.367Z,16.90
2017-09-04T21:47:54.954Z,16.90
2017-09-04T21:50:22.512Z,16.90
2017-09-04T21:52:50.088Z,16.90
2017-09-04T21:55:17.687Z,17.00
2017-09-04T21:57:45.309Z,17.00
2017-09-04T22:00:13.196Z,17.00
2017-09-04T22:02:40.770Z,17.00
2017-09-04T22:05:08.408Z,17.00
2017-09-04T22:07:35.989Z,17.10
2017-09-04T22:10:03.589Z,17.10
2017-09-04T22:12:31.203Z,17.00
2017-09-04T22:14:58.811Z,17.10
2017-09-04T22:17:26.365Z,17.10
2017-09-04T22:19:53.943Z,17.00
2017-09-04T22:22:21.569Z,17.00
2017-09-04T22:24:49.190Z,16.90
2017-09-04T22:27:16.804Z,16.90
2017-09-04T22:29:44.392Z,16.90
2017-09-04T22:32:12.074Z,16.90
2017-09-04T22:34:39.704Z,17.00
2017-09-04T22:37:07.313Z,16.90
2017-09-04T22:39:34.890Z,16.90
2017-09-04T22:42:02.475Z,16.90
2017-09-04T22:44:30.040Z,16.90
2017-09-04T22:46:57.701Z,16.90
2017-09-04T22:49:25.287Z,16.80
2017-09-04T22:51:53.911Z,16.80
2017-09-04T22:54:21.523Z,16.80
2017-09-04T22:56:49.140Z,16.80
2017-09-04T22:59:17.511Z,16.90
2017-09-04T23:01:45.144Z,17.00
2017-09-04T23:04:12.805Z,16.90
2017-09-04T23:06:40.433Z,16.90
2017-09-04T23:09:08.050Z,16.90
2017-09-04T23:11:35.677Z,17.00
2017-09-04T23:14:03.206Z,16.80
2017-09-04T23:16:30.811Z,16.80
2017-09-04T23:18:58.404Z,16.60
2017-09-04T23:21:25.997Z,16.70
2017-09-04T23:23:53.589Z,16.60
2017-09-04T23:26:21.150Z,16.60
2017-09-04T23:28:48.724Z,16.60
2017-09-04T23:31:16.310Z,16.60
2017-09-04T23:33:43.920Z,16.70
2017-09-04T23:36:11.492Z,16.70
2017-09-04T23:38:39.095Z,16.90
2017-09-04T23:41:06.673Z,16.80
2017-09-04T23:43:34.302Z,16.70
2017-09-04T23:46:01.911Z,16.60
2017-09-04T23:48:29.502Z,16.50
2017-09-04T23:50:57.103Z,16.40
2017-09-04T23:53:24.742Z,16.30
2017-09-04T23:55:52.370Z,16.50
2017-09-04T23:58:19.950Z,16.40
